createdAt,value
2023-04-04T00:02:23.581Z,72.60
2023-04-04T00:04:51.710Z,72.50
2023-04-04T00:07:19.910Z,72.70
2023-04-04T00:09:49.344Z,73.20
2023-04-04T00:12:17.778Z,72.90
2023-04-04T00:14:45.915Z,73.10
2023-04-04T00:17:13.999Z,73.10
2023-04-04T00:19:42.373Z,73.30
2023-04-04T00:22:10.540Z,73.90
2023-04-04T00:24:38.631Z,73.80
2023-04-04T00:27:08.122Z,73.40
2023-04-04T00:29:37.345Z,73.50
2023-04-04T00:32:05.644Z,73.60
2023-04-04T00:34:33.733Z,73.70
2023-04-04T00:37:02.001Z,72.80
2023-04-04T00:39:30.097Z,72.40
2023-04-04T00:41:58.364Z,71.90
2023-04-04T00:44:27.742Z,71.40
2023-04-04T00:46:56.143Z,71.70
2023-04-04T00:49:24.306Z,71.40
2023-04-04T00:51:52.744Z,71.10
2023-04-04T00:54:20.830Z,71.10
2023-04-04T00:56:49.004Z,71.10
2023-04-04T00:59:17.319Z,72.00
2023-04-04T01:01:46.859Z,72.00
2023-04-04T01:04:15.519Z,72.10
2023-04-04T01:06:44.046Z,72.00
2023-04-04T01:09:12.134Z,72.10
2023-04-04T01:11:40.805Z,72.30
2023-04-04T01:14:08.998Z,72.40
2023-04-04T01:16:37.130Z,72.20
2023-04-04T01:19:10.823Z,72.50
2023-04-04T01:21:38.902Z,73.10
2023-04-04T01:24:08.268Z,73.40
2023-04-04T01:26:37.754Z,73.50
2023-04-04T01:29:05.815Z,73.00
2023-04-04T01:31:38.004Z,72.90
2023-04-04T01:34:12.163Z,73.10
2023-04-04T01:36:44.748Z,73.40
2023-04-04T01:39:19.186Z,73.30
2023-04-04T01:41:49.290Z,73.20
2023-04-04T01:44:19.016Z,73.80
2023-04-04T01:46:47.068Z,74.10
2023-04-04T01:49:15.180Z,74.40
2023-04-04T01:51:43.657Z,73.90
2023-04-04T01:54:12.217Z,74.30
2023-04-04T01:56:40.253Z,74.20
2023-04-04T01:59:09.749Z,74.70
2023-04-04T02:01:38.672Z,75.20
2023-04-04T02:04:07.312Z,75.70
2023-04-04T02:06:36.329Z,75.90
2023-04-04T02:09:04.520Z,76.10
2023-04-04T02:11:32.953Z,75.70
2023-04-04T02:14:01.149Z,75.80
2023-04-04T02:16:30.620Z,75.80
2023-04-04T02:18:58.720Z,76.00
2023-04-04T02:21:27.272Z,76.30
2023-04-04T02:23:55.447Z,76.50
2023-04-04T02:26:23.627Z,76.50
2023-04-04T02:28:51.741Z,76.30
2023-04-04T02:31:19.767Z,76.60
2023-04-04T02:33:49.196Z,76.50
2023-04-04T02:36:17.300Z,76.80
2023-04-04T02:38:45.350Z,77.00
2023-04-04T02:41:13.493Z,77.10
2023-04-04T02:43:41.612Z,77.10
2023-04-04T02:46:20.679Z,77.20
2023-04-04T02:48:52.203Z,77.20
2023-04-04T02:51:20.450Z,77.30
2023-04-04T02:53:48.482Z,77.10
2023-04-04T02:56:16.516Z,77.00
2023-04-04T02:58:44.647Z,77.20
2023-04-04T03:01:12.869Z,77.40
2023-04-04T03:03:41.018Z,77.50
2023-04-04T03:06:11.540Z,77.60
2023-04-04T03:08:39.603Z,77.80
2023-04-04T03:11:07.729Z,77.70
2023-04-04T03:13:35.847Z,77.50
2023-04-04T03:16:06.837Z,77.30
2023-04-04T03:18:36.013Z,77.30
2023-04-04T03:21:04.079Z,77.50
2023-04-04T03:23:33.704Z,77.30
2023-04-04T03:26:02.200Z,77.20
2023-04-04T03:28:30.596Z,77.20
2023-04-04T03:30:58.809Z,77.20
2023-04-04T03:33:27.511Z,77.30
2023-04-04T03:35:55.622Z,77.30
2023-04-04T03:38:23.925Z,77.40
2023-04-04T03:41:02.510Z,77.30
2023-04-04T03:43:30.991Z,77.40
2023-04-04T03:46:01.640Z,77.60
2023-04-04T03:48:30.271Z,77.40
2023-04-04T03:50:58.841Z,77.10
2023-04-04T03:53:26.897Z,77.50
2023-04-04T03:55:56.964Z,77.60
2023-04-04T03:58:25.558Z,77.80
2023-04-04T04:00:53.748Z,77.90
2023-04-04T04:03:22.407Z,78.30
2023-04-04T04:05:50.814Z,77.70
2023-04-04T04:08:18.853Z,77.90
2023-04-04T04:10:46.924Z,77.70
2023-04-04T04:13:16.343Z,77.50
2023-04-04T04:15:44.577Z,77.50
2023-04-04T04:18:12.674Z,77.70
2023-04-04T04:20:40.890Z,77.60
2023-04-04T04:23:09.106Z,77.90
2023-04-04T04:25:37.117Z,78.20
2023-04-04T04:28:05.690Z,78.50
2023-04-04T04:30:35.218Z,78.10
2023-04-04T04:33:03.785Z,78.40
2023-04-04T04:35:31.852Z,78.60
2023-04-04T04:38:00.043Z,78.50
2023-04-04T04:40:28.173Z,78.20
2023-04-04T04:42:56.252Z,78.40
2023-04-04T04:45:24.478Z,78.50
2023-04-04T04:47:54.083Z,78.60
2023-04-04T04:50:22.597Z,79.00
2023-04-04T04:52:51.557Z,78.90
2023-04-04T04:55:19.849Z,79.20
2023-04-04T04:57:48.143Z,78.80
2023-04-04T05:00:17.401Z,79.00
2023-04-04T05:02:45.509Z,79.00
2023-04-04T05:05:15.173Z,79.00
2023-04-04T05:07:46.303Z,79.10
2023-04-04T05:10:14.370Z,79.10
2023-04-04T05:12:44.732Z,78.90
2023-04-04T05:15:13.156Z,78.90
2023-04-04T05:17:41.844Z,79.20
2023-04-04T05:20:11.006Z,79.10
2023-04-04T05:22:45.269Z,79.20
2023-04-04T05:25:13.683Z,79.00
2023-04-04T05:27:42.610Z,78.90
2023-04-04T05:30:11.282Z,79.20
2023-04-04T05:32:39.334Z,79.40
2023-04-04T05:35:08.006Z,79.60
2023-04-04T05:37:40.065Z,79.60
2023-04-04T05:40:10.868Z,79.60
2023-04-04T05:42:39.007Z,79.70
2023-04-04T05:45:08.389Z,79.80
2023-04-04T05:47:36.701Z,79.80
2023-04-04T05:50:06.548Z,79.90
2023-04-04T05:52:34.594Z,80.10
2023-04-04T05:55:02.696Z,80.10
2023-04-04T05:57:32.781Z,80.60
2023-04-04T06:00:00.903Z,80.60
2023-04-04T06:02:30.109Z,80.50
2023-04-04T06:04:58.502Z,80.60
2023-04-04T06:07:26.514Z,79.90
2023-04-04T06:09:54.603Z,79.40
2023-04-04T06:12:22.704Z,79.20
2023-04-04T06:14:52.129Z,78.90
2023-04-04T06:17:20.198Z,78.90
2023-04-04T06:19:48.412Z,78.10
2023-04-04T06:22:17.751Z,77.20
2023-04-04T06:24:45.815Z,77.00
2023-04-04T06:27:13.872Z,76.20
2023-04-04T06:29:42.977Z,75.60
2023-04-04T06:32:12.489Z,75.80
2023-04-04T06:34:40.492Z,75.20
2023-04-04T06:37:08.599Z,74.50
2023-04-04T06:39:36.631Z,74.00
2023-04-04T06:42:04.852Z,73.40
2023-04-04T06:44:33.012Z,72.80
2023-04-04T06:47:01.348Z,72.50
2023-04-04T06:49:30.930Z,71.90
2023-04-04T06:51:58.950Z,72.30
2023-04-04T06:54:27.612Z,70.70
2023-04-04T06:56:55.721Z,70.30
2023-04-04T06:59:23.867Z,69.50
2023-04-04T07:01:52.052Z,69.60
2023-04-04T07:04:20.538Z,69.10
2023-04-04T07:06:50.006Z,68.20
2023-04-04T07:09:27.921Z,67.90
2023-04-04T07:11:57.077Z,67.90
2023-04-04T07:14:25.904Z,67.00
2023-04-04T07:16:55.118Z,66.90
2023-04-04T07:19:24.497Z,66.70
2023-04-04T07:21:53.975Z,66.70
2023-04-04T07:24:22.152Z,66.20
2023-04-04T07:26:50.268Z,65.40
2023-04-04T07:29:18.459Z,65.00
2023-04-04T07:31:46.505Z,64.30
2023-04-04T07:34:14.829Z,64.20
2023-04-04T07:36:43.033Z,62.00
2023-04-04T07:39:12.445Z,62.30
2023-04-04T07:41:41.811Z,62.30
2023-04-04T07:44:10.191Z,60.10
2023-04-04T07:46:38.501Z,59.00
2023-04-04T07:49:07.668Z,59.30
2023-04-04T07:51:36.151Z,58.50
2023-04-04T07:54:04.269Z,58.70
2023-04-04T07:56:33.827Z,58.50
2023-04-04T07:59:02.140Z,58.90
2023-04-04T08:01:30.865Z,59.50
2023-04-04T08:03:59.056Z,58.00
2023-04-04T08:06:27.272Z,57.50
2023-04-04T08:08:55.446Z,56.60
2023-04-04T08:11:23.617Z,56.70
2023-04-04T08:13:53.095Z,55.20
2023-04-04T08:16:21.567Z,55.10
2023-04-04T08:18:49.778Z,54.20
2023-04-04T08:21:17.927Z,55.80
2023-04-04T08:23:46.042Z,54.50
2023-04-04T08:26:14.115Z,54.20
2023-04-04T08:28:42.253Z,52.30
2023-04-04T08:31:12.531Z,52.40
2023-04-04T08:36:12.383Z,53.00
2023-04-04T08:38:40.492Z,53.20
2023-04-04T08:41:09.589Z,52.30
2023-04-04T08:43:38.145Z,48.20
2023-04-04T08:46:07.112Z,48.70
2023-04-04T08:48:38.586Z,51.30
2023-04-04T08:51:09.167Z,52.20
2023-04-04T08:53:37.744Z,51.20
2023-04-04T08:56:06.341Z,50.70
2023-04-04T08:58:34.630Z,49.70
2023-04-04T09:01:02.685Z,50.70
2023-04-04T09:03:33.169Z,50.70
2023-04-04T09:06:02.948Z,50.70
2023-04-04T09:08:31.488Z,49.80
2023-04-04T09:10:59.608Z,49.70
2023-04-04T09:13:27.659Z,49.40
2023-04-04T09:15:56.470Z,50.30
2023-04-04T09:18:24.696Z,49.20
2023-04-04T09:20:52.917Z,48.50
2023-04-04T09:23:23.791Z,48.90
2023-04-04T09:26:03.169Z,47.10
2023-04-04T09:28:33.163Z,47.50
2023-04-04T09:31:02.390Z,47.00
2023-04-04T09:33:33.975Z,46.80
2023-04-04T09:36:04.586Z,48.20
2023-04-04T09:38:37.982Z,45.40
2023-04-04T09:41:08.357Z,47.70
2023-04-04T09:43:37.362Z,46.10
2023-04-04T09:46:06.711Z,47.40
2023-04-04T09:48:36.973Z,46.70
2023-04-04T09:51:06.405Z,46.90
2023-04-04T09:53:38.078Z,45.60
2023-04-04T09:56:07.592Z,47.10
2023-04-04T09:58:36.642Z,48.10
2023-04-04T10:01:06.761Z,46.80
2023-04-04T10:03:34.904Z,46.50
2023-04-04T10:06:07.253Z,46.50
2023-04-04T10:08:40.699Z,46.20
2023-04-04T10:11:11.252Z,46.90
2023-04-04T10:13:42.305Z,44.40
2023-04-04T10:16:11.334Z,43.40
2023-04-04T10:18:40.224Z,43.50
2023-04-04T10:23:43.911Z,45.10
2023-04-04T10:26:12.850Z,45.80
2023-04-04T10:28:42.262Z,43.10
2023-04-04T10:31:17.560Z,45.50
2023-04-04T10:33:50.775Z,45.30
2023-04-04T10:36:22.851Z,45.10
2023-04-04T10:39:08.749Z,43.20
2023-04-04T10:41:37.556Z,44.80
2023-04-04T10:44:14.578Z,43.40
2023-04-04T10:46:44.974Z,43.50
2023-04-04T10:49:13.317Z,42.90
2023-04-04T10:51:52.959Z,43.70
2023-04-04T10:54:22.748Z,43.90
2023-04-04T10:56:50.834Z,44.50
2023-04-04T10:59:19.285Z,43.50
2023-04-04T11:01:58.139Z,44.40
2023-04-04T11:04:34.917Z,44.90
2023-04-04T11:07:11.373Z,43.50
2023-04-04T11:09:54.352Z,42.30
2023-04-04T11:12:24.331Z,42.30
2023-04-04T11:15:08.426Z,42.60
2023-04-04T11:17:57.525Z,42.20
2023-04-04T11:20:30.163Z,41.40
2023-04-04T11:23:05.614Z,42.50
2023-04-04T11:25:37.442Z,41.40
2023-04-04T11:28:07.912Z,40.80
2023-04-04T11:30:44.113Z,40.70
2023-04-04T11:33:14.135Z,40.30
2023-04-04T11:35:45.990Z,40.30
2023-04-04T11:38:15.074Z,40.40
2023-04-04T11:40:54.773Z,42.00
2023-04-04T11:43:23.734Z,40.90
2023-04-04T11:45:51.962Z,39.50
2023-04-04T11:48:21.077Z,39.00
2023-04-04T11:50:53.162Z,39.30
2023-04-04T11:53:21.402Z,39.80
2023-04-04T11:55:54.799Z,39.40
2023-04-04T11:58:23.255Z,39.30
2023-04-04T12:00:51.708Z,39.00
2023-04-04T12:03:19.936Z,39.20
2023-04-04T12:05:48.570Z,40.20
2023-04-04T12:08:18.050Z,39.80
2023-04-04T12:10:46.118Z,39.00
2023-04-04T12:13:16.345Z,40.90
2023-04-04T12:15:45.005Z,39.00
2023-04-04T12:18:22.246Z,39.80
2023-04-04T12:20:52.192Z,38.90
2023-04-04T12:23:20.866Z,39.60
2023-04-04T12:25:53.825Z,39.40
2023-04-04T12:28:24.035Z,38.20
2023-04-04T12:30:53.286Z,39.20
2023-04-04T12:33:21.415Z,40.00
2023-04-04T12:35:53.773Z,37.90
2023-04-04T12:38:21.847Z,38.80
2023-04-04T12:40:52.519Z,38.80
2023-04-04T12:43:20.895Z,39.90
2023-04-04T12:45:51.202Z,40.10
2023-04-04T12:48:21.216Z,40.80
2023-04-04T12:50:54.334Z,39.60
2023-04-04T12:55:55.845Z,41.50
2023-04-04T12:58:25.866Z,41.10
2023-04-04T13:00:56.915Z,39.80
2023-04-04T13:03:26.279Z,39.40
2023-04-04T13:05:54.446Z,39.80
2023-04-04T13:08:22.706Z,39.30
2023-04-04T13:10:57.980Z,39.20
2023-04-04T13:13:36.478Z,40.50
2023-04-04T13:16:07.602Z,40.50
2023-04-04T13:18:38.389Z,39.60
2023-04-04T13:21:08.494Z,39.30
2023-04-04T13:23:37.722Z,41.00
2023-04-04T13:26:06.967Z,38.90
2023-04-04T13:28:35.646Z,38.60
2023-04-04T13:31:04.763Z,38.30
2023-04-04T13:33:34.798Z,38.90
2023-04-04T13:36:03.127Z,40.20
2023-04-04T13:38:31.958Z,39.80
2023-04-04T13:41:00.661Z,40.00
2023-04-04T13:43:29.011Z,40.50
2023-04-04T13:45:57.364Z,41.60
2023-04-04T13:48:25.541Z,41.20
2023-04-04T13:50:55.722Z,39.80
2023-04-04T13:53:23.816Z,38.10
2023-04-04T13:56:16.232Z,38.70
2023-04-04T13:58:40.561Z,39.60
2023-04-04T14:01:08.961Z,39.80
2023-04-04T14:03:37.326Z,40.50
2023-04-04T14:06:10.728Z,39.60
2023-04-04T14:08:39.739Z,39.70
2023-04-04T14:11:08.032Z,41.70
2023-04-04T14:13:36.382Z,41.60
2023-04-04T14:16:04.705Z,41.80
2023-04-04T14:18:34.332Z,41.10
2023-04-04T14:21:02.985Z,40.40
2023-04-04T14:23:32.962Z,42.60
2023-04-04T14:26:01.155Z,42.30
2023-04-04T14:28:29.375Z,42.80
2023-04-04T14:30:57.402Z,42.10
2023-04-04T14:33:26.341Z,41.20
2023-04-04T14:35:54.423Z,42.10
2023-04-04T14:38:22.530Z,40.80
2023-04-04T14:40:52.431Z,41.70
2023-04-04T14:43:20.725Z,42.20
2023-04-04T14:45:49.300Z,42.10
2023-04-04T14:48:17.346Z,41.40
2023-04-04T14:50:45.908Z,42.10
2023-04-04T14:53:14.069Z,43.30
2023-04-04T14:55:42.623Z,42.40
2023-04-04T14:58:12.548Z,41.70
2023-04-04T15:00:40.770Z,40.80
2023-04-04T15:03:09.126Z,42.90
2023-04-04T15:05:37.187Z,42.00
2023-04-04T15:08:05.572Z,42.50
2023-04-04T15:10:33.678Z,43.40
2023-04-04T15:13:01.993Z,42.00
2023-04-04T15:15:31.465Z,40.90
2023-04-04T15:17:59.566Z,41.80
2023-04-04T15:20:27.827Z,42.40
2023-04-04T15:22:55.939Z,42.30
2023-04-04T15:25:24.246Z,43.40
2023-04-04T15:27:52.300Z,42.20
2023-04-04T15:30:20.551Z,42.70
2023-04-04T15:32:51.291Z,42.50
2023-04-04T15:35:21.875Z,40.90
2023-04-04T15:37:50.131Z,42.80
2023-04-04T15:40:18.718Z,41.60
2023-04-04T15:42:47.187Z,42.90
2023-04-04T15:45:15.884Z,41.40
2023-04-04T15:47:45.031Z,42.70
2023-04-04T15:50:14.876Z,40.00
2023-04-04T15:52:43.256Z,41.30
2023-04-04T15:55:13.338Z,41.10
2023-04-04T15:57:44.394Z,43.00
2023-04-04T16:00:14.507Z,40.90
2023-04-04T16:02:43.095Z,41.00
2023-04-04T16:05:11.492Z,42.00
2023-04-04T16:07:40.907Z,42.40
2023-04-04T16:10:10.469Z,42.20
2023-04-04T16:12:38.593Z,42.70
2023-04-04T16:15:08.730Z,43.30
2023-04-04T16:17:36.862Z,41.80
2023-04-04T16:20:05.723Z,41.90
2023-04-04T16:22:34.284Z,43.30
2023-04-04T16:25:03.757Z,42.10
2023-04-04T16:27:31.860Z,44.00
2023-04-04T16:29:59.940Z,44.00
2023-04-04T16:32:28.552Z,45.00
2023-04-04T16:34:56.650Z,44.80
2023-04-04T16:37:24.710Z,44.00
2023-04-04T16:39:52.903Z,43.30
2023-04-04T16:42:22.392Z,44.40
2023-04-04T16:44:50.598Z,43.80
2023-04-04T16:47:18.827Z,45.00
2023-04-04T16:49:48.041Z,46.10
2023-04-04T16:52:16.221Z,44.60
2023-04-04T16:54:44.538Z,45.10
2023-04-04T16:57:13.110Z,42.50
2023-04-04T16:59:42.691Z,43.60
2023-04-04T17:02:10.889Z,44.40
2023-04-04T17:04:41.719Z,45.20
2023-04-04T17:07:10.384Z,44.30
2023-04-04T17:09:38.754Z,45.40
2023-04-04T17:12:07.485Z,43.20
2023-04-04T17:14:35.701Z,45.10
2023-04-04T17:17:05.790Z,46.10
2023-04-04T17:19:35.127Z,44.30
2023-04-04T17:22:03.549Z,44.90
2023-04-04T17:24:31.745Z,45.90
2023-04-04T17:27:01.932Z,45.80
2023-04-04T17:29:30.205Z,44.30
2023-04-04T17:31:59.727Z,46.30
2023-04-04T17:34:29.306Z,46.00
2023-04-04T17:36:57.701Z,46.00
2023-04-04T17:39:26.237Z,46.80
2023-04-04T17:41:54.438Z,47.40
2023-04-04T17:44:23.001Z,46.20
2023-04-04T17:46:51.200Z,48.30
2023-04-04T17:49:20.167Z,47.20
2023-04-04T17:51:50.609Z,46.90
2023-04-04T17:54:18.978Z,46.60
2023-04-04T17:58:36.149Z,46.50
2023-04-04T18:01:05.495Z,47.30
2023-04-04T18:03:33.849Z,48.50
2023-04-04T18:06:02.495Z,47.90
2023-04-04T18:08:30.738Z,48.00
2023-04-04T18:10:59.674Z,48.50
2023-04-04T18:13:27.978Z,49.10
2023-04-04T18:15:57.653Z,47.80
2023-04-04T18:18:26.076Z,48.40
2023-04-04T18:20:55.138Z,49.00
2023-04-04T18:23:24.319Z,49.00
2023-04-04T18:25:52.555Z,48.80
2023-04-04T18:28:20.801Z,49.70
2023-04-04T18:30:49.523Z,49.60
2023-04-04T18:33:19.641Z,49.10
2023-04-04T18:35:48.385Z,50.00
2023-04-04T18:38:17.109Z,50.50
2023-04-04T18:40:48.572Z,49.60
2023-04-04T18:43:18.246Z,49.30
2023-04-04T18:45:47.345Z,49.30
2023-04-04T18:48:15.891Z,49.30
2023-04-04T18:50:45.821Z,48.50
2023-04-04T18:53:14.077Z,49.50
2023-04-04T18:55:42.337Z,49.40
2023-04-04T18:58:10.904Z,48.80
2023-04-04T19:00:39.503Z,50.80
2023-04-04T19:03:08.109Z,50.90
2023-04-04T19:05:38.474Z,50.00
2023-04-04T19:08:09.462Z,50.00
2023-04-04T19:10:38.894Z,50.10
2023-04-04T19:13:07.334Z,50.60
2023-04-04T19:15:35.857Z,51.30
2023-04-04T19:18:04.265Z,51.50
2023-04-04T19:20:32.551Z,52.20
2023-04-04T19:23:00.839Z,52.20
2023-04-04T19:25:30.591Z,52.60
2023-04-04T19:27:59.617Z,52.30
2023-04-04T19:30:47.299Z,52.60
2023-04-04T19:33:17.816Z,52.40
2023-04-04T19:35:54.894Z,53.00
2023-04-04T19:38:28.150Z,54.00
2023-04-04T19:41:00.352Z,53.60
2023-04-04T19:43:30.220Z,54.20
2023-04-04T19:46:09.494Z,54.80
2023-04-04T19:48:44.252Z,55.00
2023-04-04T19:51:38.455Z,54.80
2023-04-04T19:54:09.900Z,55.30
2023-04-04T19:56:39.537Z,56.50
2023-04-04T19:59:10.635Z,56.00
2023-04-04T20:01:47.253Z,56.30
2023-04-04T20:04:19.093Z,56.60
2023-04-04T20:06:49.364Z,57.20
2023-04-04T20:09:34.773Z,57.50
2023-04-04T20:12:05.057Z,58.40
2023-04-04T20:14:33.367Z,58.40
2023-04-04T20:17:01.669Z,57.80
2023-04-04T20:19:30.319Z,58.20
2023-04-04T20:21:58.632Z,58.80
2023-04-04T20:24:28.412Z,59.20
2023-04-04T20:26:59.177Z,59.00
2023-04-04T20:29:31.448Z,60.10
2023-04-04T20:32:02.248Z,60.10
2023-04-04T20:34:41.761Z,60.30
2023-04-04T20:37:14.117Z,60.20
2023-04-04T20:39:49.717Z,60.90
2023-04-04T20:42:39.981Z,61.40
2023-04-04T20:45:42.801Z,61.90
2023-04-04T20:48:38.224Z,62.40
2023-04-04T20:51:23.727Z,64.30
2023-04-04T20:53:53.906Z,64.40
2023-04-04T20:56:58.308Z,64.00
2023-04-04T20:59:36.506Z,63.80
2023-04-04T21:02:16.768Z,63.50
2023-04-04T21:04:48.240Z,63.80
2023-04-04T21:07:43.880Z,64.70
2023-04-04T21:10:25.601Z,64.30
2023-04-04T21:12:54.504Z,65.20
2023-04-04T21:15:24.700Z,64.80
2023-04-04T21:17:54.873Z,65.30
2023-04-04T21:21:16.964Z,64.30
2023-04-04T21:23:51.188Z,63.90
2023-04-04T21:26:28.348Z,64.90
2023-04-04T21:28:57.899Z,64.60
2023-04-04T21:31:34.677Z,65.20
2023-04-04T21:34:15.775Z,65.90
2023-04-04T21:36:44.892Z,66.40
2023-04-04T21:39:15.103Z,66.70
2023-04-04T21:41:45.350Z,67.00
2023-04-04T21:44:14.859Z,66.30
2023-04-04T21:46:43.627Z,66.60
2023-04-04T21:49:13.708Z,67.80
2023-04-04T21:51:42.626Z,66.80
2023-04-04T21:54:11.155Z,67.20
2023-04-04T21:56:39.712Z,67.10
2023-04-04T21:59:10.244Z,67.80
2023-04-04T22:01:40.789Z,67.80
2023-04-04T22:04:09.355Z,68.30
2023-04-04T22:06:38.904Z,69.10
2023-04-04T22:09:07.132Z,70.30
2023-04-04T22:11:38.806Z,71.00
2023-04-04T22:14:07.993Z,71.00
2023-04-04T22:16:39.751Z,70.70
2023-04-04T22:19:10.888Z,71.00
2023-04-04T22:21:48.083Z,71.00
2023-04-04T22:24:18.003Z,71.20
2023-04-04T22:26:46.921Z,71.20
2023-04-04T22:29:15.478Z,71.80
2023-04-04T22:31:44.087Z,71.10
2023-04-04T22:34:14.894Z,71.40
2023-04-04T22:36:44.946Z,71.40
2023-04-04T22:39:16.122Z,71.00
2023-04-04T22:41:45.250Z,71.30
2023-04-04T22:44:13.382Z,71.20
2023-04-04T22:46:41.672Z,71.00
2023-04-04T22:49:10.145Z,71.50
2023-04-04T22:51:44.112Z,70.90
2023-04-04T22:54:15.722Z,71.70
2023-04-04T22:56:44.331Z,71.90
2023-04-04T22:59:12.848Z,72.40
2023-04-04T23:01:41.543Z,73.00
2023-04-04T23:04:09.854Z,72.80
2023-04-04T23:06:38.589Z,72.90
2023-04-04T23:09:07.960Z,72.70
2023-04-04T23:11:38.705Z,72.40
2023-04-04T23:14:09.256Z,72.50
2023-04-04T23:16:38.267Z,72.30
2023-04-04T23:19:06.500Z,72.40
2023-04-04T23:21:34.817Z,72.80
2023-04-04T23:24:03.304Z,73.10
2023-04-04T23:26:32.576Z,73.30
2023-04-04T23:29:02.980Z,73.50
2023-04-04T23:31:31.292Z,73.40
2023-04-04T23:34:00.450Z,73.60
2023-04-04T23:36:28.682Z,73.70
2023-04-04T23:38:57.048Z,74.10
2023-04-04T23:41:25.336Z,74.50
2023-04-04T23:43:54.618Z,74.60
2023-04-04T23:46:24.315Z,75.10
2023-04-04T23:48:52.729Z,75.10
2023-04-04T23:51:21.344Z,75.20
2023-04-04T23:53:49.664Z,75.30
2023-04-04T23:56:17.985Z,75.40
2023-04-04T23:58:46.275Z,75.70
